Nanseimaru — JD3160 — position and weather

sailwx.info

Track history (hours):
 
Tides and Currents Weather Stations Pressure Air Temp Water Temp Dewpoint Dewpoint Depression Visibility Wind Speed Wind Dir Waves Ship Positions

Nanseimaru

Last reported at 2018-Jun-24 10:57 UTC. Time now 2018-Jun-25 09:24 UTC.
Position N 33°51' E 135°04'.

Length 74 m; draft 4.3 m.

Type: Cargo ship. MMSI: 431002213.

Date/timePositionNaut miles runAvg speedWind from/ knotsBaromVisibWave heightAir tempDewpointWater temp
2018-Jun-24 10:57N 33°51' E 135°04'810.4
2018-Jun-24 10:13N 33°58' E 135°01'210.5
2018-Jun-24 10:00N 34°00' E 135°01'510.6
2018-Jun-24 09:30N 34°06' E 134°60'510.6
2018-Jun-24 09:00N 34°11' E 134°59'510.5
2018-Jun-24 08:30N 34°16' E 134°59'5 9.3
2018-Jun-24 08:00N 34°21' E 134°60'510.3
2018-Jun-24 07:30N 34°24' E 135°04'510.8
2018-Jun-24 07:00N 34°28' E 135°09'611.1
2018-Jun-24 06:29N 34°31' E 135°15'511.0
2018-Jun-24 05:59N 34°35' E 135°20'5 9.5
2018-Jun-24 05:30N 34°36' E 135°25'2 3.9
2018-Jun-24 04:59N 34°34' E 135°27'0 0.0
2018-Jun-23 14:11N 34°34' E 135°27'0 0.8
2018-Jun-23 13:58N 34°34' E 135°27'0 0.1
2018-Jun-23 10:32N 34°35' E 135°27'0 0.0
2018-Jun-23 10:29N 34°35' E 135°27'4 9.3
2018-Jun-23 10:00N 34°36' E 135°22'612.8
2018-Jun-23 09:30N 34°32' E 135°16'713.4
2018-Jun-23 09:00N 34°27' E 135°10'713.8
2018-Jun-23 08:30N 34°22' E 135°04'713.9
2018-Jun-23 08:00N 34°17' E 134°59'713.4
2018-Jun-23 07:30N 34°10' E 134°60'613.0
2018-Jun-23 07:00N 34°03' E 135°01'712.9
2018-Jun-23 06:30N 33°57' E 135°02'24610.6
2018-Jun-22 07:12N 35°13' E 139°46'213.1
2018-Jun-22 07:00N 35°16' E 139°46'713.0
2018-Jun-22 06:30N 35°21' E 139°42'612.0
2018-Jun-22 06:00N 35°26' E 139°46'712.8
2018-Jun-22 05:29N 35°31' E 139°52'4 0.1
2018-Jun-20 04:15N 35°33' E 139°56'311.5
2018-Jun-20 04:00N 35°31' E 139°54'611.2
2018-Jun-20 03:30N 35°26' E 139°49'510.8
2018-Jun-20 03:00N 35°22' E 139°45'5 9.9
2018-Jun-20 02:29N 35°17' E 139°46'710.6
2018-Jun-20 01:52N 35°10' E 139°47'24610.3
2018-Jun-19 01:53N 33°51' E 135°04'510.0
2018-Jun-19 01:25N 33°55' E 135°02'511.0
2018-Jun-19 01:00N 34°00' E 135°02'611.2
2018-Jun-19 00:30N 34°06' E 135°02'611.5
2018-Jun-19 00:00N 34°11' E 135°02'611.7
2018-Jun-18 23:30N 34°17' E 135°03'611.9
2018-Jun-18 23:00N 34°22' E 135°07'612.7
2018-Jun-18 22:30N 34°27' E 135°12'612.1
2018-Jun-18 22:00N 34°32' E 135°17'711.9
2018-Jun-18 21:27N 34°36' E 135°23'4 0.2
2018-Jun-18 02:49N 34°35' E 135°28'1 2.3
2018-Jun-18 02:31N 34°35' E 135°27'1 0.1
2018-Jun-17 12:36N 34°34' E 135°27'0 0.3
2018-Jun-17 11:21N 34°34' E 135°27'410.9
2018-Jun-17 11:00N 34°36' E 135°23'612.8
2018-Jun-17 10:30N 34°32' E 135°17'613.0
2018-Jun-17 10:00N 34°28' E 135°12'612.6
2018-Jun-17 09:31N 34°23' E 135°06'713.0
2018-Jun-17 09:00N 34°18' E 135°01'510.6
2018-Jun-17 08:31N 34°13' E 134°60'611.8
2018-Jun-17 08:00N 34°07' E 135°00'613.1
2018-Jun-17 07:31N 34°01' E 135°01'712.9
2018-Jun-17 06:59N 33°54' E 135°02'24711.0
2018-Jun-16 08:29N 35°13' E 139°46'511.5
2018-Jun-16 08:00N 35°18' E 139°44'612.0
2018-Jun-16 07:30N 35°24' E 139°43'612.9
2018-Jun-16 07:00N 35°28' E 139°49'7 0.2
2018-Jun-14 15:33N 35°33' E 139°56'111.4
2018-Jun-14 15:29N 35°32' E 139°55'611.6
2018-Jun-14 15:00N 35°28' E 139°51'611.4
2018-Jun-14 14:30N 35°24' E 139°46'611.4
2018-Jun-14 14:00N 35°18' E 139°44'510.6
2018-Jun-14 13:30N 35°13' E 139°47'  
Track history (hours):
 
Tides and Currents Weather Stations Pressure Air Temp Water Temp Dewpoint Dewpoint Depression Visibility Wind Speed Wind Dir Waves Ship Positions

Nanseimaru

Last reported at 2018-Jun-24 10:57 UTC. Time now 2018-Jun-25 09:24 UTC.
Position N 33°51' E 135°04'.

Length 74 m; draft 4.3 m.

Type: Cargo ship. MMSI: 431002213.

Date/timePositionNaut miles runAvg speedWind from/ knotsBaromVisibWave heightAir tempDewpointWater temp
2018-Jun-24 10:57N 33°51' E 135°04'810.4
2018-Jun-24 10:13N 33°58' E 135°01'210.5
2018-Jun-24 10:00N 34°00' E 135°01'510.6
2018-Jun-24 09:30N 34°06' E 134°60'510.6
2018-Jun-24 09:00N 34°11' E 134°59'510.5
2018-Jun-24 08:30N 34°16' E 134°59'5 9.3
2018-Jun-24 08:00N 34°21' E 134°60'510.3
2018-Jun-24 07:30N 34°24' E 135°04'510.8
2018-Jun-24 07:00N 34°28' E 135°09'611.1
2018-Jun-24 06:29N 34°31' E 135°15'511.0
2018-Jun-24 05:59N 34°35' E 135°20'5 9.5
2018-Jun-24 05:30N 34°36' E 135°25'2 3.9
2018-Jun-24 04:59N 34°34' E 135°27'0 0.0
2018-Jun-23 14:11N 34°34' E 135°27'0 0.8
2018-Jun-23 13:58N 34°34' E 135°27'0 0.1
2018-Jun-23 10:32N 34°35' E 135°27'0 0.0
2018-Jun-23 10:29N 34°35' E 135°27'4 9.3
2018-Jun-23 10:00N 34°36' E 135°22'612.8
2018-Jun-23 09:30N 34°32' E 135°16'713.4
2018-Jun-23 09:00N 34°27' E 135°10'713.8
2018-Jun-23 08:30N 34°22' E 135°04'713.9
2018-Jun-23 08:00N 34°17' E 134°59'713.4
2018-Jun-23 07:30N 34°10' E 134°60'613.0
2018-Jun-23 07:00N 34°03' E 135°01'712.9
2018-Jun-23 06:30N 33°57' E 135°02'24610.6
2018-Jun-22 07:12N 35°13' E 139°46'213.1
2018-Jun-22 07:00N 35°16' E 139°46'713.0
2018-Jun-22 06:30N 35°21' E 139°42'612.0
2018-Jun-22 06:00N 35°26' E 139°46'712.8
2018-Jun-22 05:29N 35°31' E 139°52'4 0.1
2018-Jun-20 04:15N 35°33' E 139°56'311.5
2018-Jun-20 04:00N 35°31' E 139°54'611.2
2018-Jun-20 03:30N 35°26' E 139°49'510.8
2018-Jun-20 03:00N 35°22' E 139°45'5 9.9
2018-Jun-20 02:29N 35°17' E 139°46'710.6
2018-Jun-20 01:52N 35°10' E 139°47'24610.3
2018-Jun-19 01:53N 33°51' E 135°04'510.0
2018-Jun-19 01:25N 33°55' E 135°02'511.0
2018-Jun-19 01:00N 34°00' E 135°02'611.2
2018-Jun-19 00:30N 34°06' E 135°02'611.5
2018-Jun-19 00:00N 34°11' E 135°02'611.7
2018-Jun-18 23:30N 34°17' E 135°03'611.9
2018-Jun-18 23:00N 34°22' E 135°07'612.7
2018-Jun-18 22:30N 34°27' E 135°12'612.1
2018-Jun-18 22:00N 34°32' E 135°17'711.9
2018-Jun-18 21:27N 34°36' E 135°23'4 0.2
2018-Jun-18 02:49N 34°35' E 135°28'1 2.3
2018-Jun-18 02:31N 34°35' E 135°27'1 0.1
2018-Jun-17 12:36N 34°34' E 135°27'0 0.3
2018-Jun-17 11:21N 34°34' E 135°27'410.9
2018-Jun-17 11:00N 34°36' E 135°23'612.8
2018-Jun-17 10:30N 34°32' E 135°17'613.0
2018-Jun-17 10:00N 34°28' E 135°12'612.6
2018-Jun-17 09:31N 34°23' E 135°06'713.0
2018-Jun-17 09:00N 34°18' E 135°01'510.6
2018-Jun-17 08:31N 34°13' E 134°60'611.8
2018-Jun-17 08:00N 34°07' E 135°00'613.1
2018-Jun-17 07:31N 34°01' E 135°01'712.9
2018-Jun-17 06:59N 33°54' E 135°02'24711.0
2018-Jun-16 08:29N 35°13' E 139°46'511.5
2018-Jun-16 08:00N 35°18' E 139°44'612.0
2018-Jun-16 07:30N 35°24' E 139°43'612.9
2018-Jun-16 07:00N 35°28' E 139°49'7 0.2
2018-Jun-14 15:33N 35°33' E 139°56'111.4
2018-Jun-14 15:29N 35°32' E 139°55'611.6
2018-Jun-14 15:00N 35°28' E 139°51'611.4
2018-Jun-14 14:30N 35°24' E 139°46'611.4
2018-Jun-14 14:00N 35°18' E 139°44'510.6
2018-Jun-14 13:30N 35°13' E 139°47'  

Dump ship's entire track history